sensor_id;sensor_type;location;lat;lon;timestamp;pressure;altitude;pressure_sealevel;temperature;humidity
13080;BME280;6606;49.154;9.280;2023-01-30T00:01:44;100395.72;;;-0.17;100.00
13080;BME280;6606;49.154;9.280;2023-01-30T00:04:26;100384.38;;;-0.25;100.00
13080;BME280;6606;49.154;9.280;2023-01-30T00:07:07;100392.19;;;-0.25;100.00
13080;BME280;6606;49.154;9.280;2023-01-30T00:09:49;100393.09;;;-0.20;100.00
13080;BME280;6606;49.154;9.280;2023-01-30T00:12:32;100386.13;;;-0.24;100.00
13080;BME280;6606;49.154;9.280;2023-01-30T00:15:14;100377.38;;;-0.35;100.00
13080;BME280;6606;49.154;9.280;2023-01-30T00:17:55;100378.28;;;-0.32;100.00
13080;BME280;6606;49.154;9.280;2023-01-30T00:20:37;100376.47;;;-0.40;100.00
13080;BME280;6606;49.154;9.280;2023-01-30T00:23:19;100372.16;;;-0.41;100.00
13080;BME280;6606;49.154;9.280;2023-01-30T00:26:01;100386.06;;;-0.39;100.00
13080;BME280;6606;49.154;9.280;2023-01-30T00:28:44;100385.22;;;-0.34;100.00
13080;BME280;6606;49.154;9.280;2023-01-30T00:31:25;100410.41;;;-0.34;100.00
13080;BME280;6606;49.154;9.280;2023-01-30T00:34:07;100415.63;;;-0.31;100.00
13080;BME280;6606;49.154;9.280;2023-01-30T00:36:49;100426.03;;;-0.31;100.00
13080;BME280;6606;49.154;9.280;2023-01-30T00:39:32;100433.88;;;-0.28;100.00
13080;BME280;6606;49.154;9.280;2023-01-30T00:42:15;100444.31;;;-0.24;100.00
13080;BME280;6606;49.154;9.280;2023-01-30T00:45:15;100452.97;;;-0.28;100.00
13080;BME280;6606;49.154;9.280;2023-01-30T00:48:15;100452.13;;;-0.25;100.00
13080;BME280;6606;49.154;9.280;2023-01-30T00:50:57;100439.88;;;-0.35;100.00
13080;BME280;6606;49.154;9.280;2023-01-30T00:53:38;100437.28;;;-0.35;100.00
13080;BME280;6606;49.154;9.280;2023-01-30T00:56:20;100430.31;;;-0.38;100.00
13080;BME280;6606;49.154;9.280;2023-01-30T00:59:02;100425.16;;;-0.33;100.00
13080;BME280;6606;49.154;9.280;2023-01-30T01:01:45;100431.22;;;-0.34;100.00
13080;BME280;6606;49.154;9.280;2023-01-30T01:04:27;100426.03;;;-0.34;100.00
13080;BME280;6606;49.154;9.280;2023-01-30T01:07:09;100427.72;;;-0.39;100.00
13080;BME280;6606;49.154;9.280;2023-01-30T01:09:51;100433.78;;;-0.42;100.00
13080;BME280;6606;49.154;9.280;2023-01-30T01:12:33;100430.31;;;-0.38;100.00
13080;BME280;6606;49.154;9.280;2023-01-30T01:15:14;100420.75;;;-0.40;100.00
13080;BME280;6606;49.154;9.280;2023-01-30T01:17:58;100421.63;;;-0.41;100.00
13080;BME280;6606;49.154;9.280;2023-01-30T01:20:40;100419.91;;;-0.39;100.00
13080;BME280;6606;49.154;9.280;2023-01-30T01:23:22;100425.94;;;-0.43;100.00
13080;BME280;6606;49.154;9.280;2023-01-30T01:26:03;100419.00;;;-0.45;100.00
13080;BME280;6606;49.154;9.280;2023-01-30T01:28:48;100412.16;;;-0.24;100.00
13080;BME280;6606;49.154;9.280;2023-01-30T01:31:30;100410.50;;;-0.16;100.00
13080;BME280;6606;49.154;9.280;2023-01-30T01:34:13;100407.03;;;-0.12;100.00
13080;BME280;6606;49.154;9.280;2023-01-30T01:36:57;100395.75;;;-0.06;100.00
13080;BME280;6606;49.154;9.280;2023-01-30T01:39:39;100376.66;;;-0.04;100.00
13080;BME280;6606;49.154;9.280;2023-01-30T01:42:40;100379.34;;;0.09;100.00
13080;BME280;6606;49.154;9.280;2023-01-30T01:45:23;100378.47;;;0.10;100.00
13080;BME280;6606;49.154;9.280;2023-01-30T01:48:10;100374.19;;;0.30;100.00
13080;BME280;6606;49.154;9.280;2023-01-30T01:50:56;100364.63;;;0.32;100.00
13080;BME280;6606;49.154;9.280;2023-01-30T01:53:45;100358.50;;;0.21;100.00
13080;BME280;6606;49.154;9.280;2023-01-30T01:56:30;100355.03;;;0.19;100.00
13080;BME280;6606;49.154;9.280;2023-01-30T01:59:19;100332.44;;;0.21;100.00
13080;BME280;6606;49.154;9.280;2023-01-30T02:02:08;100339.41;;;0.22;100.00
13080;BME280;6606;49.154;9.280;2023-01-30T02:04:54;100322.91;;;0.28;100.00
13080;BME280;6606;49.154;9.280;2023-01-30T02:07:49;100342.88;;;0.26;100.00
13080;BME280;6606;49.154;9.280;2023-01-30T02:13:32;100306.41;;;0.30;100.00
13080;BME280;6606;49.154;9.280;2023-01-30T02:16:14;100313.34;;;0.22;100.00
13080;BME280;6606;49.154;9.280;2023-01-30T02:18:58;100304.69;;;0.29;100.00
13080;BME280;6606;49.154;9.280;2023-01-30T02:22:09;100307.28;;;0.34;100.00
13080;BME280;6606;49.154;9.280;2023-01-30T02:28:38;100284.69;;;0.43;100.00
13080;BME280;6606;49.154;9.280;2023-01-30T02:31:34;100289.03;;;0.32;100.00
13080;BME280;6606;49.154;9.280;2023-01-30T02:34:34;100301.19;;;0.39;100.00
13080;BME280;6606;49.154;9.280;2023-01-30T02:37:28;100297.72;;;0.53;100.00
13080;BME280;6606;49.154;9.280;2023-01-30T02:40:27;100290.78;;;0.58;100.00
13080;BME280;6606;49.154;9.280;2023-01-30T02:43:19;100281.22;;;0.66;100.00
13080;BME280;6606;49.154;9.280;2023-01-30T02:46:10;100276.88;;;0.74;100.00
13080;BME280;6606;49.154;9.280;2023-01-30T02:48:59;100246.44;;;0.75;100.00
13080;BME280;6606;49.154;9.280;2023-01-30T02:51:46;100249.00;;;0.95;100.00
13080;BME280;6606;49.154;9.280;2023-01-30T02:54:29;100228.13;;;0.95;100.00
13080;BME280;6606;49.154;9.280;2023-01-30T02:57:18;100226.38;;;1.03;100.00
13080;BME280;6606;49.154;9.280;2023-01-30T03:00:02;100223.78;;;0.98;100.00
13080;BME280;6606;49.154;9.280;2023-01-30T03:02:58;100208.13;;;1.06;100.00
13080;BME280;6606;49.154;9.280;2023-01-30T03:06:14;100208.09;;;1.04;100.00
13080;BME280;6606;49.154;9.280;2023-01-30T03:09:07;100216.75;;;1.25;100.00
13080;BME280;6606;49.154;9.280;2023-01-30T03:12:03;100195.84;;;1.23;100.00
13080;BME280;6606;49.154;9.280;2023-01-30T03:14:52;100189.78;;;1.18;100.00
13080;BME280;6606;49.154;9.280;2023-01-30T03:17:36;100193.28;;;1.11;100.00
13080;BME280;6606;49.154;9.280;2023-01-30T03:20:21;100191.59;;;1.04;100.00
13080;BME280;6606;49.154;9.280;2023-01-30T03:23:04;100206.34;;;1.08;100.00
13080;BME280;6606;49.154;9.280;2023-01-30T03:25:46;100219.41;;;1.08;100.00
13080;BME280;6606;49.154;9.280;2023-01-30T03:28:29;100222.91;;;1.01;100.00
13080;BME280;6606;49.154;9.280;2023-01-30T03:31:12;100222.03;;;1.00;100.00
13080;BME280;6606;49.154;9.280;2023-01-30T03:33:54;100215.06;;;0.98;100.00
13080;BME280;6606;49.154;9.280;2023-01-30T03:36:35;100210.72;;;1.09;100.00
13080;BME280;6606;49.154;9.280;2023-01-30T03:39:18;100211.59;;;0.99;100.00
13080;BME280;6606;49.154;9.280;2023-01-30T03:42:00;100222.91;;;0.98;100.00
13080;BME280;6606;49.154;9.280;2023-01-30T03:44:42;100233.34;;;0.95;100.00
13080;BME280;6606;49.154;9.280;2023-01-30T03:47:24;100224.66;;;0.93;100.00
13080;BME280;6606;49.154;9.280;2023-01-30T03:50:09;100247.28;;;0.84;100.00
13080;BME280;6606;49.154;9.280;2023-01-30T03:52:51;100251.63;;;0.88;100.00
13080;BME280;6606;49.154;9.280;2023-01-30T03:55:36;100249.88;;;0.89;100.00
13080;BME280;6606;49.154;9.280;2023-01-30T03:58:18;100249.03;;;0.88;100.00
13080;BME280;6606;49.154;9.280;2023-01-30T04:01:00;100247.31;;;0.87;100.00
13080;BME280;6606;49.154;9.280;2023-01-30T04:03:42;100254.25;;;0.88;100.00
13080;BME280;6606;49.154;9.280;2023-01-30T04:06:23;100249.88;;;0.98;100.00
13080;BME280;6606;49.154;9.280;2023-01-30T04:09:06;100261.19;;;1.02;100.00
13080;BME280;6606;49.154;9.280;2023-01-30T04:11:54;100259.47;;;0.93;100.00
13080;BME280;6606;49.154;9.280;2023-01-30T04:14:36;100236.00;;;0.85;100.00
13080;BME280;6606;49.154;9.280;2023-01-30T04:17:38;100252.50;;;0.94;100.00
13080;BME280;6606;49.154;9.280;2023-01-30T04:20:39;100254.25;;;0.76;100.00
13080;BME280;6606;49.154;9.280;2023-01-30T04:23:20;100243.78;;;0.98;100.00
13080;BME280;6606;49.154;9.280;2023-01-30T04:26:02;100254.22;;;0.98;100.00
13080;BME280;6606;49.154;9.280;2023-01-30T04:28:46;100252.50;;;0.92;100.00
13080;BME280;6606;49.154;9.280;2023-01-30T04:31:28;100253.41;;;0.85;100.00
13080;BME280;6606;49.154;9.280;2023-01-30T04:34:15;100241.22;;;0.90;100.00
13080;BME280;6606;49.154;9.280;2023-01-30T04:36:56;100239.47;;;0.86;100.00
13080;BME280;6606;49.154;9.280;2023-01-30T04:39:38;100233.41;;;0.82;100.00
13080;BME280;6606;49.154;9.280;2023-01-30T04:42:21;100224.69;;;0.83;100.00
13080;BME280;6606;49.154;9.280;2023-01-30T04:45:24;100227.31;;;0.80;100.00
13080;BME280;6606;49.154;9.280;2023-01-30T04:48:06;100240.34;;;0.83;100.00
13080;BME280;6606;49.154;9.280;2023-01-30T04:50:50;100244.69;;;0.80;100.00
13080;BME280;6606;49.154;9.280;2023-01-30T04:53:32;100242.94;;;0.82;100.00
13080;BME280;6606;49.154;9.280;2023-01-30T04:56:13;100242.06;;;0.94;100.00
13080;BME280;6606;49.154;9.280;2023-01-30T04:58:55;100235.97;;;0.99;100.00
13080;BME280;6606;49.154;9.280;2023-01-30T05:01:40;100230.75;;;0.92;100.00
13080;BME280;6606;49.154;9.280;2023-01-30T05:04:21;100219.44;;;0.90;100.00
13080;BME280;6606;49.154;9.280;2023-01-30T05:07:03;100222.94;;;0.76;100.00
13080;BME280;6606;49.154;9.280;2023-01-30T05:09:45;100204.69;;;0.78;100.00
13080;BME280;6606;49.154;9.280;2023-01-30T05:12:26;100195.97;;;0.79;100.00
13080;BME280;6606;49.154;9.280;2023-01-30T05:15:09;100189.94;;;0.69;100.00
13080;BME280;6606;49.154;9.280;2023-01-30T05:17:52;100191.66;;;0.73;100.00
13080;BME280;6606;49.154;9.280;2023-01-30T05:20:34;100187.31;;;0.71;100.00
13080;BME280;6606;49.154;9.280;2023-01-30T05:23:16;100184.72;;;0.60;100.00
13080;BME280;6606;49.154;9.280;2023-01-30T05:25:57;100183.00;;;0.59;100.00
13080;BME280;6606;49.154;9.280;2023-01-30T05:28:40;100171.69;;;0.49;100.00
13080;BME280;6606;49.154;9.280;2023-01-30T05:31:22;100162.97;;;0.67;100.00
13080;BME280;6606;49.154;9.280;2023-01-30T05:34:05;100154.28;;;0.60;100.00
13080;BME280;6606;49.154;9.280;2023-01-30T05:36:47;100170.81;;;0.55;100.00
13080;BME280;6606;49.154;9.280;2023-01-30T05:39:29;100154.28;;;0.65;100.00
13080;BME280;6606;49.154;9.280;2023-01-30T05:42:10;100163.84;;;0.69;100.00
13080;BME280;6606;49.154;9.280;2023-01-30T05:44:52;100150.78;;;0.72;100.00
13080;BME280;6606;49.154;9.280;2023-01-30T05:47:34;100152.50;;;0.85;100.00
13080;BME280;6606;49.154;9.280;2023-01-30T05:50:17;100164.66;;;0.88;100.00
13080;BME280;6606;49.154;9.280;2023-01-30T05:52:59;100159.47;;;0.77;100.00
13080;BME280;6606;49.154;9.280;2023-01-30T05:55:40;100158.59;;;0.78;100.00
13080;BME280;6606;49.154;9.280;2023-01-30T05:58:23;100146.38;;;0.90;100.00
13080;BME280;6606;49.154;9.280;2023-01-30T06:01:06;100148.09;;;1.00;100.00
13080;BME280;6606;49.154;9.280;2023-01-30T06:03:49;100134.19;;;0.92;100.00
13080;BME280;6606;49.154;9.280;2023-01-30T06:06:32;100132.41;;;1.03;100.00
13080;BME280;6606;49.154;9.280;2023-01-30T06:09:13;100130.69;;;1.02;100.00
13080;BME280;6606;49.154;9.280;2023-01-30T06:11:55;100138.50;;;1.00;100.00
13080;BME280;6606;49.154;9.280;2023-01-30T06:14:37;100143.78;;;0.91;100.00
13080;BME280;6606;49.154;9.280;2023-01-30T06:17:18;100147.28;;;0.81;100.00
13080;BME280;6606;49.154;9.280;2023-01-30T06:20:00;100139.44;;;0.85;100.00
13080;BME280;6606;49.154;9.280;2023-01-30T06:22:43;100145.50;;;0.92;100.00
13080;BME280;6606;49.154;9.280;2023-01-30T06:25:25;100159.41;;;1.02;100.00
13080;BME280;6606;49.154;9.280;2023-01-30T06:28:07;100161.16;;;1.01;100.00
13080;BME280;6606;49.154;9.280;2023-01-30T06:30:48;100168.94;;;1.09;100.00
13080;BME280;6606;49.154;9.280;2023-01-30T06:33:30;100172.47;;;0.96;100.00
13080;BME280;6606;49.154;9.280;2023-01-30T06:36:12;100170.75;;;0.88;100.00
13080;BME280;6606;49.154;9.280;2023-01-30T06:38:55;100156.75;;;1.08;100.00
13080;BME280;6606;49.154;9.280;2023-01-30T06:41:36;100149.78;;;1.19;100.00
13080;BME280;6606;49.154;9.280;2023-01-30T06:44:18;100149.75;;;1.16;100.00
13080;BME280;6606;49.154;9.280;2023-01-30T06:46:59;100151.53;;;1.08;100.00
13080;BME280;6606;49.154;9.280;2023-01-30T06:49:41;100148.03;;;1.12;100.00
13080;BME280;6606;49.154;9.280;2023-01-30T06:52:23;100142.75;;;1.24;100.00
13080;BME280;6606;49.154;9.280;2023-01-30T06:55:07;100147.13;;;1.21;100.00
13080;BME280;6606;49.154;9.280;2023-01-30T06:57:48;100136.72;;;1.19;100.00
13080;BME280;6606;49.154;9.280;2023-01-30T07:00:31;100150.56;;;1.30;100.00
13080;BME280;6606;49.154;9.280;2023-01-30T07:03:14;100149.72;;;1.30;100.00
13080;BME280;6606;49.154;9.280;2023-01-30T07:05:56;100159.22;;;1.43;100.00
13080;BME280;6606;49.154;9.280;2023-01-30T07:08:38;100156.59;;;1.45;100.00
13080;BME280;6606;49.154;9.280;2023-01-30T07:11:21;100160.16;;;1.28;100.00
13080;BME280;6606;49.154;9.280;2023-01-30T07:14:03;100163.59;;;1.37;100.00
13080;BME280;6606;49.154;9.280;2023-01-30T07:16:44;100167.84;;;1.53;100.00
13080;BME280;6606;49.154;9.280;2023-01-30T07:19:26;100168.78;;;1.43;100.00
13080;BME280;6606;49.154;9.280;2023-01-30T07:22:08;100157.50;;;1.39;100.00
13080;BME280;6606;49.154;9.280;2023-01-30T07:24:49;100158.31;;;1.43;100.00
13080;BME280;6606;49.154;9.280;2023-01-30T07:27:33;100176.56;;;1.50;100.00
13080;BME280;6606;49.154;9.280;2023-01-30T07:30:15;100172.19;;;1.56;100.00
13080;BME280;6606;49.154;9.280;2023-01-30T07:32:58;100168.69;;;1.63;100.00
13080;BME280;6606;49.154;9.280;2023-01-30T07:35:40;100171.31;;;1.60;100.00
13080;BME280;6606;49.154;9.280;2023-01-30T07:38:21;100161.72;;;1.60;100.00
13080;BME280;6606;49.154;9.280;2023-01-30T07:41:03;100167.78;;;1.70;100.00
13080;BME280;6606;49.154;9.280;2023-01-30T07:43:48;100159.91;;;1.71;100.00
13080;BME280;6606;49.154;9.280;2023-01-30T07:46:30;100133.75;;;1.78;100.00
13080;BME280;6606;49.154;9.280;2023-01-30T07:49:14;100119.03;;;1.66;100.00
13080;BME280;6606;49.154;9.280;2023-01-30T07:51:56;100116.31;;;1.76;100.00
13080;BME280;6606;49.154;9.280;2023-01-30T07:54:37;100082.31;;;1.80;100.00
13080;BME280;6606;49.154;9.280;2023-01-30T07:57:19;100084.06;;;1.84;100.00
13080;BME280;6606;49.154;9.280;2023-01-30T08:00:03;100088.31;;;1.92;100.00
13080;BME280;6606;49.154;9.280;2023-01-30T08:02:49;100126.63;;;2.00;100.00
13080;BME280;6606;49.154;9.280;2023-01-30T08:05:31;100129.22;;;2.00;100.00
13080;BME280;6606;49.154;9.280;2023-01-30T08:08:13;100106.53;;;2.05;100.00
13080;BME280;6606;49.154;9.280;2023-01-30T08:10:54;100101.25;;;2.11;100.00
13080;BME280;6606;49.154;9.280;2023-01-30T08:13:36;100074.28;;;2.07;100.00
13080;BME280;6606;49.154;9.280;2023-01-30T08:16:19;100096.84;;;2.17;100.00
13080;BME280;6606;49.154;9.280;2023-01-30T08:19:03;100093.22;;;2.31;100.00
13080;BME280;6606;49.154;9.280;2023-01-30T08:21:45;100078.34;;;2.34;100.00
13080;BME280;6606;49.154;9.280;2023-01-30T08:24:26;100086.16;;;2.37;100.00
13080;BME280;6606;49.154;9.280;2023-01-30T08:27:08;100092.28;;;2.36;100.00
13080;BME280;6606;49.154;9.280;2023-01-30T08:29:50;100107.13;;;2.33;100.00
13080;BME280;6606;49.154;9.280;2023-01-30T08:32:33;100116.81;;;2.23;100.00
13080;BME280;6606;49.154;9.280;2023-01-30T08:35:15;100112.47;;;2.24;100.00
13080;BME280;6606;49.154;9.280;2023-01-30T08:37:56;100096.75;;;2.27;100.00
13080;BME280;6606;49.154;9.280;2023-01-30T08:40:39;100082.84;;;2.22;100.00
13080;BME280;6606;49.154;9.280;2023-01-30T08:43:20;100086.28;;;2.28;100.00
13080;BME280;6606;49.154;9.280;2023-01-30T08:46:03;100086.13;;;2.42;100.00
13080;BME280;6606;49.154;9.280;2023-01-30T08:48:46;100071.38;;;2.35;100.00
13080;BME280;6606;49.154;9.280;2023-01-30T08:51:27;100066.78;;;2.57;100.00
13080;BME280;6606;49.154;9.280;2023-01-30T08:54:09;100061.53;;;2.58;100.00
13080;BME280;6606;49.154;9.280;2023-01-30T08:56:51;100065.03;;;2.57;100.00
13080;BME280;6606;49.154;9.280;2023-01-30T08:59:33;100057.19;;;2.56;100.00
13080;BME280;6606;49.154;9.280;2023-01-30T09:02:15;100058.94;;;2.54;100.00
13080;BME280;6606;49.154;9.280;2023-01-30T09:04:58;100058.94;;;2.57;100.00
13080;BME280;6606;49.154;9.280;2023-01-30T09:07:39;100063.06;;;2.76;100.00
13080;BME280;6606;49.154;9.280;2023-01-30T09:10:21;100066.47;;;2.83;100.00
13080;BME280;6606;49.154;9.280;2023-01-30T09:13:03;100089.09;;;2.89;100.00
13080;BME280;6606;49.154;9.280;2023-01-30T09:15:45;100069.69;;;3.03;100.00
13080;BME280;6606;49.154;9.280;2023-01-30T09:18:27;100058.28;;;3.09;100.00
13080;BME280;6606;49.154;9.280;2023-01-30T09:21:11;100071.50;;;2.98;100.00
13080;BME280;6606;49.154;9.280;2023-01-30T09:23:54;100053.81;;;3.16;100.00
13080;BME280;6606;49.154;9.280;2023-01-30T09:26:36;100064.31;;;3.16;100.00
13080;BME280;6606;49.154;9.280;2023-01-30T09:29:19;100060.72;;;3.23;100.00
13080;BME280;6606;49.154;9.280;2023-01-30T09:32:02;100055.50;;;3.20;100.00
13080;BME280;6606;49.154;9.280;2023-01-30T09:34:43;100060.03;;;3.10;100.00
13080;BME280;6606;49.154;9.280;2023-01-30T09:37:27;100049.66;;;3.01;100.00
13080;BME280;6606;49.154;9.280;2023-01-30T09:40:13;100051.50;;;2.94;100.00
13080;BME280;6606;49.154;9.280;2023-01-30T09:43:12;100049.66;;;3.01;100.00
13080;BME280;6606;49.154;9.280;2023-01-30T09:46:05;100055.78;;;2.98;100.00
13080;BME280;6606;49.154;9.280;2023-01-30T09:48:56;100055.50;;;3.20;100.00
13080;BME280;6606;49.154;9.280;2023-01-30T09:51:45;100045.97;;;3.14;100.00
13080;BME280;6606;49.154;9.280;2023-01-30T09:54:36;100041.59;;;3.18;100.00
13080;BME280;6606;49.154;9.280;2023-01-30T09:57:20;100044.09;;;3.24;100.00
13080;BME280;6606;49.154;9.280;2023-01-30T10:00:06;100040.53;;;3.29;100.00
13080;BME280;6606;49.154;9.280;2023-01-30T10:03:00;100030.91;;;3.30;100.00
13080;BME280;6606;49.154;9.280;2023-01-30T10:05:47;100047.38;;;3.40;100.00
13080;BME280;6606;49.154;9.280;2023-01-30T10:08:44;100025.50;;;3.42;100.00
13080;BME280;6606;49.154;9.280;2023-01-30T10:11:41;100025.59;;;3.36;100.00
13080;BME280;6606;49.154;9.280;2023-01-30T10:14:45;100024.63;;;3.42;100.00
13080;BME280;6606;49.154;9.280;2023-01-30T10:17:40;100020.16;;;3.48;100.00
13080;BME280;6606;49.154;9.280;2023-01-30T10:20:33;100018.66;;;3.34;100.00
13080;BME280;6606;49.154;9.280;2023-01-30T10:23:24;100030.03;;;3.31;100.00
13080;BME280;6606;49.154;9.280;2023-01-30T10:26:12;100045.16;;;3.11;100.00
13080;BME280;6606;49.154;9.280;2023-01-30T10:28:59;100043.56;;;3.00;100.00
13080;BME280;6606;49.154;9.280;2023-01-30T10:31:47;100038.31;;;2.99;100.00
13080;BME280;6606;49.154;9.280;2023-01-30T10:34:31;100033.88;;;3.05;100.00
13080;BME280;6606;49.154;9.280;2023-01-30T10:37:18;100026.84;;;3.11;100.00
13080;BME280;6606;49.154;9.280;2023-01-30T10:40:05;100028.50;;;3.18;100.00
13080;BME280;6606;49.154;9.280;2023-01-30T10:43:00;100030.38;;;3.08;100.00
13080;BME280;6606;49.154;9.280;2023-01-30T10:45:51;100036.47;;;3.08;100.00
13080;BME280;6606;49.154;9.280;2023-01-30T10:48:49;100038.19;;;3.09;100.00
13080;BME280;6606;49.154;9.280;2023-01-30T10:51:45;100044.38;;;3.05;100.00
13080;BME280;6606;49.154;9.280;2023-01-30T10:54:34;100041.69;;;3.08;100.00
13080;BME280;6606;49.154;9.280;2023-01-30T10:57:24;100046.19;;;3.00;100.00
13080;BME280;6606;49.154;9.280;2023-01-30T11:00:18;100060.03;;;3.08;100.00
13080;BME280;6606;49.154;9.280;2023-01-30T11:03:20;100030.38;;;3.08;100.00
13080;BME280;6606;49.154;9.280;2023-01-30T11:06:06;100036.41;;;3.12;100.00
13080;BME280;6606;49.154;9.280;2023-01-30T11:08:49;100025.88;;;3.18;100.00
13080;BME280;6606;49.154;9.280;2023-01-30T11:11:34;100028.53;;;3.13;100.00
13080;BME280;6606;49.154;9.280;2023-01-30T11:14:22;100023.28;;;3.15;100.00
13080;BME280;6606;49.154;9.280;2023-01-30T11:17:04;100013.66;;;3.17;100.00
13080;BME280;6606;49.154;9.280;2023-01-30T11:19:53;100014.56;;;3.14;100.00
13080;BME280;6606;49.154;9.280;2023-01-30T11:22:36;100019.63;;;3.25;100.00
13080;BME280;6606;49.154;9.280;2023-01-30T11:25:19;100019.56;;;3.31;100.00
13080;BME280;6606;49.154;9.280;2023-01-30T11:28:04;100015.28;;;3.24;100.00
13080;BME280;6606;49.154;9.280;2023-01-30T11:30:51;100013.44;;;3.30;100.00
13080;BME280;6606;49.154;9.280;2023-01-30T11:33:35;99995.09;;;3.30;100.00
13080;BME280;6606;49.154;9.280;2023-01-30T11:36:26;99991.72;;;3.24;100.00
13080;BME280;6606;49.154;9.280;2023-01-30T11:39:19;99994.31;;;3.25;100.00
13080;BME280;6606;49.154;9.280;2023-01-30T11:42:02;99999.53;;;3.27;100.00
13080;BME280;6606;49.154;9.280;2023-01-30T11:44:45;100008.06;;;3.40;100.00
13080;BME280;6606;49.154;9.280;2023-01-30T11:47:27;99996.63;;;3.47;100.00
13080;BME280;6606;49.154;9.280;2023-01-30T11:50:15;99978.53;;;3.30;100.00
13080;BME280;6606;49.154;9.280;2023-01-30T11:53:01;99989.78;;;3.35;100.00
13080;BME280;6606;49.154;9.280;2023-01-30T11:55:44;99990.66;;;3.37;100.00
13080;BME280;6606;49.154;9.280;2023-01-30T11:58:30;99990.59;;;3.40;100.00
13080;BME280;6606;49.154;9.280;2023-01-30T12:01:13;99985.41;;;3.37;100.00
13080;BME280;6606;49.154;9.280;2023-01-30T12:03:57;99989.84;;;3.30;100.00
13080;BME280;6606;49.154;9.280;2023-01-30T12:06:41;99980.28;;;3.28;100.00
13080;BME280;6606;49.154;9.280;2023-01-30T12:09:32;99983.69;;;3.36;100.00
13080;BME280;6606;49.154;9.280;2023-01-30T12:12:29;99979.31;;;3.35;100.00
13080;BME280;6606;49.154;9.280;2023-01-30T12:15:19;99983.69;;;3.35;100.00
13080;BME280;6606;49.154;9.280;2023-01-30T12:18:09;99986.31;;;3.36;100.00
13080;BME280;6606;49.154;9.280;2023-01-30T12:20:57;99994.13;;;3.39;100.00
13080;BME280;6606;49.154;9.280;2023-01-30T12:23:42;99993.16;;;3.45;100.00
13080;BME280;6606;49.154;9.280;2023-01-30T12:26:29;99994.91;;;3.44;100.00
13080;BME280;6606;49.154;9.280;2023-01-30T12:29:22;99996.78;;;3.36;100.00
13080;BME280;6606;49.154;9.280;2023-01-30T12:32:07;100004.53;;;3.42;100.00
13080;BME280;6606;49.154;9.280;2023-01-30T12:34:51;99986.03;;;3.51;100.00
13080;BME280;6606;49.154;9.280;2023-01-30T12:37:42;99995.94;;;3.34;100.00
13080;BME280;6606;49.154;9.280;2023-01-30T12:40:40;100017.69;;;3.39;100.00
13080;BME280;6606;49.154;9.280;2023-01-30T12:43:42;99990.47;;;3.48;100.00
13080;BME280;6606;49.154;9.280;2023-01-30T12:46:40;99989.44;;;3.58;100.00
13080;BME280;6606;49.154;9.280;2023-01-30T12:49:39;99992.06;;;3.57;100.00
13080;BME280;6606;49.154;9.280;2023-01-30T12:52:40;99991.94;;;3.66;100.00
13080;BME280;6606;49.154;9.280;2023-01-30T12:55:35;99981.59;;;3.57;100.00
13080;BME280;6606;49.154;9.280;2023-01-30T12:58:26;99987.44;;;3.72;100.00
13080;BME280;6606;49.154;9.280;2023-01-30T13:01:19;99998.56;;;3.85;100.00
13080;BME280;6606;49.154;9.280;2023-01-30T13:04:09;100007.59;;;3.69;100.00
13080;BME280;6606;49.154;9.280;2023-01-30T13:07:08;100013.56;;;3.77;100.00
13080;BME280;6606;49.154;9.280;2023-01-30T13:10:06;100008.56;;;3.63;100.00
13080;BME280;6606;49.154;9.280;2023-01-30T13:12:57;100002.47;;;3.63;100.00
13080;BME280;6606;49.154;9.280;2023-01-30T13:15:49;100013.69;;;3.71;100.00
13080;BME280;6606;49.154;9.280;2023-01-30T13:18:41;100001.44;;;3.71;100.00
13080;BME280;6606;49.154;9.280;2023-01-30T13:21:33;100003.94;;;3.79;100.00
13080;BME280;6606;49.154;9.280;2023-01-30T13:24:22;100017.91;;;3.78;100.00
13080;BME280;6606;49.154;9.280;2023-01-30T13:27:11;100028.19;;;3.90;100.00
13080;BME280;6606;49.154;9.280;2023-01-30T13:29:58;100038.63;;;3.95;100.00
13080;BME280;6606;49.154;9.280;2023-01-30T13:32:44;100049.22;;;3.87;100.00
13080;BME280;6606;49.154;9.280;2023-01-30T13:35:33;100049.97;;;3.95;100.00
13080;BME280;6606;49.154;9.280;2023-01-30T13:38:19;100064.97;;;3.87;100.00
13080;BME280;6606;49.154;9.280;2023-01-30T13:41:03;100043.22;;;3.81;100.00
13080;BME280;6606;49.154;9.280;2023-01-30T13:43:49;100040.63;;;3.79;100.00
13080;BME280;6606;49.154;9.280;2023-01-30T13:46:36;100045.22;;;3.65;100.00
13080;BME280;6606;49.154;9.280;2023-01-30T13:49:21;100060.94;;;3.65;100.00
13080;BME280;6606;49.154;9.280;2023-01-30T13:52:09;100065.38;;;3.60;100.00
13080;BME280;6606;49.154;9.280;2023-01-30T13:54:59;100054.88;;;3.63;100.00
13080;BME280;6606;49.154;9.280;2023-01-30T13:57:46;100055.81;;;3.57;100.00
13080;BME280;6606;49.154;9.280;2023-01-30T14:00:32;100069.59;;;3.70;100.00
13080;BME280;6606;49.154;9.280;2023-01-30T14:03:24;100060.75;;;3.79;100.00
13080;BME280;6606;49.154;9.280;2023-01-30T14:06:31;100064.19;;;3.82;100.00
13080;BME280;6606;49.154;9.280;2023-01-30T14:09:22;100058.19;;;3.74;100.00
13080;BME280;6606;49.154;9.280;2023-01-30T14:12:16;100057.41;;;3.69;100.00
13080;BME280;6606;49.154;9.280;2023-01-30T14:15:01;100063.66;;;3.59;100.00
13080;BME280;6606;49.154;9.280;2023-01-30T14:17:56;100046.06;;;3.67;100.00
13080;BME280;6606;49.154;9.280;2023-01-30T14:20:42;100027.59;;;3.73;100.00
13080;BME280;6606;49.154;9.280;2023-01-30T14:23:28;100030.22;;;3.76;100.00
13080;BME280;6606;49.154;9.280;2023-01-30T14:26:13;100045.72;;;3.88;100.00
13080;BME280;6606;49.154;9.280;2023-01-30T14:28:55;100048.25;;;3.93;100.00
13080;BME280;6606;49.154;9.280;2023-01-30T14:31:47;100051.19;;;3.76;100.00
13080;BME280;6606;49.154;9.280;2023-01-30T14:34:48;100058.06;;;3.82;100.00
13080;BME280;6606;49.154;9.280;2023-01-30T14:41:22;100057.72;;;4.02;100.00
13080;BME280;6606;49.154;9.280;2023-01-30T14:44:06;100069.72;;;4.15;100.00
13080;BME280;6606;49.154;9.280;2023-01-30T14:46:53;100072.28;;;4.19;100.00
13080;BME280;6606;49.154;9.280;2023-01-30T14:49:35;100061.97;;;4.09;100.00